• images/banner/banner1.jpg
  • images/banner/banner2.jpg

Team Member Login

Aviation Weather

[source: ADDS]
METAR
EGVN 240450Z 26003KT CAVOK 05/03 Q1018 NOSIG =
TAF
TAF EGVN 240448Z 2406/2506 28007KT 9999 BKN045 TEMPO 2407/2418 BKN018 PROB30 TEMPO 2407/2410 SCT014 PROB30 TEMPO 2412/2418 7000 -SHRA SCT014 PROB30 TEMPO 2504/2506 SCT012 =